KHYS/HYS METAR and TAF weather

Enter ICAO airport designator
Station Type Date Time Source
KHYS METAR 2019/08/25 01:56 UTC NOAA

KHYS 250156Z AUTO 13013KT 10SM SCT075 23/21 A2974 RMK AO2 LTG DSNT E SLP058 T02330206


Station Type Date Time Source
KHYS Decoded METAR 2019/08/25 01:56 UTC NOAA

Station name not available
Aug 24, 2019 - 09:56 PM EDT / 2019.08.25 0156 UTC
Wind: from the SE (130 degrees) at 15 MPH (13 KT):0
Visibility: 10 mile(s):0
Sky conditions: partly cloudy
Weather: Lightning observed
Temperature: 73.9 F (23.3 C)
Dew Point: 69.1 F (20.6 C)
Relative Humidity: 84%
Pressure (altimeter): 29.74 in. Hg (1007 hPa)
ob: KHYS 250156Z AUTO 13013KT 10SM SCT075 23/21 A2974 RMK AO2 LTG DSNT E SLP058 T02330206
cycle: 2

Station Type Date Time Source
KHYS TAF 2019/08/25 02:27 UTC NOAA

TAF
AMD KHYS 250225Z 2502/2524 13013KT P6SM SCT080
FM250400 VRB25G45KT 4SM TSRA BKN030CB
FM250600 06011KT P6SM VCSH OVC017
FM251000 12007KT P6SM BKN008

Example: see airport list